Time;durP1;ratioP1;P1;durP2;ratioP2;P2;SDS_P1;SDS_P2;PMS_P1;PMS_P2;Temp;Humidity;BMP_temperature;BMP_pressure;BME280_temperature;BME280_humidity;BME280_pressure;Samples;Min_cycle;Max_cycle;Signal;HPM_P1;HPM_P2
2021/05/10 00:00:19;;;;;;;;;;;16.60;59.30;;;;;;5043040;28;87987;-65
2021/05/10 00:02:45;;;;;;;;;;;16.60;59.60;;;;;;5041820;28;87173;-64
2021/05/10 00:05:11;;;;;;;;;;;16.60;59.20;;;;;;5043941;28;87172;-64
2021/05/10 00:07:36;;;;;;;;;;;16.60;59.20;;;;;;5040105;28;87238;-65
2021/05/10 00:10:03;;;;;;;;;;;16.60;59.50;;;;;;5039217;28;87604;-64
2021/05/10 00:12:28;;;;;;;;;;;16.60;59.40;;;;;;5040598;28;88907;-64
2021/05/10 00:14:54;;;;;;;;;;;16.60;59.50;;;;;;5043176;28;87170;-65
2021/05/10 00:17:20;;;;;;;;;;;16.60;59.60;;;;;;5042541;28;87317;-64
2021/05/10 00:19:46;;;;;;;;;;;16.50;59.20;;;;;;5039121;28;89341;-64
2021/05/10 00:22:11;;;;;;;;;;;16.50;59.30;;;;;;5039765;28;87246;-64
2021/05/10 00:24:37;;;;;;;;;;;16.50;59.40;;;;;;5038852;28;87159;-64
2021/05/10 00:27:03;;;;;;;;;;;16.50;59.50;;;;;;5041507;28;87789;-64
2021/05/10 00:29:28;;;;;;;;;;;16.40;59.50;;;;;;5038509;28;90197;-64
2021/05/10 00:31:54;;;;;;;;;;;16.50;59.60;;;;;;5038399;28;88243;-64
2021/05/10 00:34:20;;;;;;;;;;;16.40;59.60;;;;;;5039110;27;87191;-64
2021/05/10 00:36:45;;;;;;;;;;;16.40;59.60;;;;;;5038759;27;87453;-64
2021/05/10 00:39:11;;;;;;;;;;;16.40;59.30;;;;;;5038200;27;89729;-64
2021/05/10 00:41:36;;;;;;;;;;;16.40;59.60;;;;;;5037983;27;87252;-64
2021/05/10 00:44:02;;;;;;;;;;;16.40;59.60;;;;;;5038045;27;88809;-65
2021/05/10 00:46:28;;;;;;;;;;;16.40;59.70;;;;;;5042105;27;88791;-64
2021/05/10 00:48:53;;;;;;;;;;;16.40;59.70;;;;;;5044875;28;87777;-64
2021/05/10 00:51:19;;;;;;;;;;;16.40;59.60;;;;;;5041792;27;89600;-64
2021/05/10 00:53:44;;;;;;;;;;;16.30;59.50;;;;;;5042596;27;87266;-64
2021/05/10 00:56:10;;;;;;;;;;;16.30;59.50;;;;;;5040191;28;88814;-64
2021/05/10 00:58:37;;;;;;;;;;;16.30;59.90;;;;;;5040426;27;88541;-64
2021/05/10 01:01:03;;;;;;;;;;;16.30;59.60;;;;;;5041580;27;86487;-64
2021/05/10 01:03:29;;;;;;;;;;;16.20;59.50;;;;;;5040225;28;87198;-64
2021/05/10 01:05:55;;;;;;;;;;;16.30;59.70;;;;;;5038579;28;87866;-65
2021/05/10 01:08:20;;;;;;;;;;;16.20;59.80;;;;;;5038037;28;88160;-64
2021/05/10 01:10:46;;;;;;;;;;;16.20;59.60;;;;;;5041425;27;89259;-65
2021/05/10 01:13:12;;;;;;;;;;;16.20;59.80;;;;;;5038469;28;87192;-64
2021/05/10 01:15:39;;;;;;;;;;;16.20;59.50;;;;;;5037795;27;88818;-65
2021/05/10 01:18:04;;;;;;;;;;;16.20;59.70;;;;;;5040736;28;88231;-65
2021/05/10 01:20:32;;;;;;;;;;;16.20;59.60;;;;;;5040519;27;87257;-64
2021/05/10 01:22:58;;;;;;;;;;;16.20;60.00;;;;;;5037283;27;87736;-65
2021/05/10 01:25:31;;;;;;;;;;;16.10;59.60;;;;;;5039567;27;88860;-65
2021/05/10 01:27:57;;;;;;;;;;;16.10;59.80;;;;;;5038801;27;87132;-64
2021/05/10 01:30:24;;;;;;;;;;;16.10;59.70;;;;;;5037143;28;87467;-64
2021/05/10 01:32:53;;;;;;;;;;;16.10;59.50;;;;;;5042634;28;90797;-64
2021/05/10 01:35:20;;;;;;;;;;;16.10;59.70;;;;;;5038158;28;89443;-64
2021/05/10 01:37:46;;;;;;;;;;;16.10;59.60;;;;;;5037304;28;89606;-64
2021/05/10 01:40:12;;;;;;;;;;;16.00;59.70;;;;;;5036637;28;87195;-65
2021/05/10 01:42:37;;;;;;;;;;;16.00;59.80;;;;;;5039789;27;89291;-64
2021/05/10 01:45:04;;;;;;;;;;;16.00;59.80;;;;;;5038050;28;88427;-64
2021/05/10 01:47:30;;;;;;;;;;;16.00;59.70;;;;;;5040642;28;87129;-64
2021/05/10 01:49:55;;;;;;;;;;;16.00;59.90;;;;;;5041633;28;86833;-65
2021/05/10 01:52:21;;;;;;;;;;;16.00;59.80;;;;;;5042789;28;88281;-65
2021/05/10 01:54:47;;;;;;;;;;;15.90;59.90;;;;;;5039691;28;87248;-64
2021/05/10 01:57:13;;;;;;;;;;;15.90;60.00;;;;;;5036164;28;90409;-65
2021/05/10 01:59:38;;;;;;;;;;;15.90;59.60;;;;;;5036879;28;87224;-64
2021/05/10 02:02:04;;;;;;;;;;;15.90;59.80;;;;;;5037848;28;87244;-64
2021/05/10 02:04:50;;;;;;;;;;;15.90;60.10;;;;;;5038522;28;87629;-65
2021/05/10 02:07:15;;;;;;;;;;;15.80;59.50;;;;;;5040439;28;87145;-64
2021/05/10 02:09:41;;;;;;;;;;;15.80;59.90;;;;;;5040292;28;89264;-64
2021/05/10 02:12:06;;;;;;;;;;;15.80;60.00;;;;;;5037953;28;88608;-64
2021/05/10 02:14:32;;;;;;;;;;;15.80;59.60;;;;;;5044727;28;86444;-65
2021/05/10 02:16:57;;;;;;;;;;;15.80;59.90;;;;;;5040643;28;88545;-64
2021/05/10 02:19:23;;;;;;;;;;;15.80;60.00;;;;;;5041275;28;87182;-65
2021/05/10 02:21:48;;;;;;;;;;;15.80;60.60;;;;;;5039641;28;89038;-64
2021/05/10 02:24:14;;;;;;;;;;;15.70;60.10;;;;;;5040758;28;88157;-64
2021/05/10 02:26:40;;;;;;;;;;;15.70;60.00;;;;;;5039878;28;87177;-64
2021/05/10 02:29:05;;;;;;;;;;;15.70;60.10;;;;;;5039438;28;87146;-64
2021/05/10 02:31:31;;;;;;;;;;;15.70;60.30;;;;;;5038152;28;87695;-64
2021/05/10 02:33:56;;;;;;;;;;;15.70;60.00;;;;;;5038794;27;87138;-65
2021/05/10 02:36:22;;;;;;;;;;;15.70;60.10;;;;;;5042052;27;88818;-65
2021/05/10 02:38:47;;;;;;;;;;;15.70;60.20;;;;;;5040449;28;86451;-64
2021/05/10 02:41:13;;;;;;;;;;;15.60;60.30;;;;;;5039586;27;88006;-65
2021/05/10 02:43:38;;;;;;;;;;;15.60;60.20;;;;;;5038628;27;88307;-64
2021/05/10 02:46:04;;;;;;;;;;;15.60;60.20;;;;;;5037692;28;88067;-64
2021/05/10 02:48:29;;;;;;;;;;;15.60;60.20;;;;;;5038089;28;87141;-64
2021/05/10 02:50:55;;;;;;;;;;;15.60;60.30;;;;;;5037883;28;88218;-64
2021/05/10 02:53:21;;;;;;;;;;;15.60;60.40;;;;;;5037859;27;87112;-65
2021/05/10 02:55:46;;;;;;;;;;;15.60;60.10;;;;;;5041853;27;88961;-64
2021/05/10 02:58:12;;;;;;;;;;;15.50;60.10;;;;;;5046216;28;87280;-65
2021/05/10 03:00:37;;;;;;;;;;;15.50;60.20;;;;;;5043332;27;88047;-64
2021/05/10 03:03:03;;;;;;;;;;;15.50;60.50;;;;;;5044498;28;86435;-64
2021/05/10 03:05:28;;;;;;;;;;;15.50;60.30;;;;;;5043936;27;87926;-64
2021/05/10 03:07:54;;;;;;;;;;;15.50;60.00;;;;;;5044155;27;87158;-65
2021/05/10 03:10:21;;;;;;;;;;;15.50;60.20;;;;;;5042329;27;90255;-64
2021/05/10 03:12:47;;;;;;;;;;;15.40;60.40;;;;;;5042893;28;87137;-64
2021/05/10 03:15:13;;;;;;;;;;;15.40;60.50;;;;;;5042860;27;87443;-65
2021/05/10 03:17:39;;;;;;;;;;;15.50;60.30;;;;;;5042128;27;89595;-64
2021/05/10 03:20:07;;;;;;;;;;;15.40;60.20;;;;;;5044205;27;87223;-65
2021/05/10 03:22:32;;;;;;;;;;;15.40;60.40;;;;;;5039816;28;88786;-65
2021/05/10 03:24:58;;;;;;;;;;;15.40;60.50;;;;;;5043947;28;88769;-64
2021/05/10 03:27:23;;;;;;;;;;;15.40;60.30;;;;;;5043151;27;88014;-64
2021/05/10 03:29:49;;;;;;;;;;;15.30;60.30;;;;;;5043306;28;87255;-64
2021/05/10 03:32:15;;;;;;;;;;;15.30;60.40;;;;;;5042674;28;87278;-64
2021/05/10 03:34:40;;;;;;;;;;;15.30;60.30;;;;;;5041695;28;88168;-64
2021/05/10 03:37:06;;;;;;;;;;;15.30;60.30;;;;;;5042471;28;88306;-64
2021/05/10 03:39:31;;;;;;;;;;;15.30;60.60;;;;;;5043307;28;87184;-64
2021/05/10 03:41:57;;;;;;;;;;;15.30;60.60;;;;;;5045121;28;89547;-65
2021/05/10 03:44:22;;;;;;;;;;;15.30;60.70;;;;;;5041887;28;87188;-64
2021/05/10 03:46:48;;;;;;;;;;;15.20;60.40;;;;;;5041148;28;87189;-64
2021/05/10 03:49:13;;;;;;;;;;;15.20;60.50;;;;;;5041263;28;88125;-64
2021/05/10 03:51:39;;;;;;;;;;;15.20;60.50;;;;;;5042834;28;86401;-64
2021/05/10 03:54:04;;;;;;;;;;;15.20;60.40;;;;;;5042039;28;87146;-64
2021/05/10 03:56:30;;;;;;;;;;;15.20;60.40;;;;;;5040331;28;89408;-65
2021/05/10 03:58:55;;;;;;;;;;;15.20;60.60;;;;;;5039459;28;88098;-64
2021/05/10 04:01:21;;;;;;;;;;;15.20;60.60;;;;;;5042128;28;88354;-64
2021/05/10 04:03:54;;;;;;;;;;;15.10;60.70;;;;;;5040572;28;87201;-64
2021/05/10 04:14:25;;;;;;;;;;;15.10;60.90;;;;;;5039057;28;87360;-64
2021/05/10 04:16:51;;;;;;;;;;;15.10;60.70;;;;;;5042698;28;88407;-64
2021/05/10 04:19:17;;;;;;;;;;;15.10;60.80;;;;;;5042745;28;88085;-64
2021/05/10 04:21:43;;;;;;;;;;;15.10;60.80;;;;;;5041296;28;88442;-64
2021/05/10 04:24:08;;;;;;;;;;;15.00;60.60;;;;;;5044543;28;88989;-64
2021/05/10 04:26:34;;;;;;;;;;;15.00;61.00;;;;;;5041576;28;87904;-64
2021/05/10 04:28:59;;;;;;;;;;;15.00;60.70;;;;;;5040156;28;89383;-64
2021/05/10 04:31:25;;;;;;;;;;;15.00;61.10;;;;;;5041210;28;87160;-64
2021/05/10 04:33:51;;;;;;;;;;;15.00;60.70;;;;;;5040754;28;87649;-64
2021/05/10 04:36:16;;;;;;;;;;;15.00;60.80;;;;;;5039012;27;89239;-65
2021/05/10 04:38:43;;;;;;;;;;;15.00;61.00;;;;;;5039057;28;87204;-64
2021/05/10 04:41:09;;;;;;;;;;;14.90;61.00;;;;;;5040988;27;89198;-64
2021/05/10 04:43:34;;;;;;;;;;;14.90;60.90;;;;;;5038700;27;89213;-65
2021/05/10 04:46:00;;;;;;;;;;;14.90;61.00;;;;;;5041183;28;88004;-64
2021/05/10 04:48:29;;;;;;;;;;;14.90;61.40;;;;;;5041288;27;91239;-64
2021/05/10 04:50:55;;;;;;;;;;;14.90;60.90;;;;;;5038709;27;87237;-64
2021/05/10 04:53:21;;;;;;;;;;;14.90;61.00;;;;;;5038724;28;87574;-64
2021/05/10 04:55:46;;;;;;;;;;;14.90;61.30;;;;;;5039127;27;87869;-64
2021/05/10 04:58:12;;;;;;;;;;;14.90;61.20;;;;;;5038586;27;87160;-64
2021/05/10 05:00:37;;;;;;;;;;;14.90;61.40;;;;;;5037608;27;88074;-64
2021/05/10 05:03:03;;;;;;;;;;;14.90;61.00;;;;;;5038294;27;88157;-64
2021/05/10 05:05:29;;;;;;;;;;;14.80;61.30;;;;;;5039550;28;87463;-64
2021/05/10 05:07:54;;;;;;;;;;;14.80;61.20;;;;;;5042137;28;87343;-65
2021/05/10 05:10:21;;;;;;;;;;;14.80;61.40;;;;;;5042314;28;87153;-64
2021/05/10 05:12:49;;;;;;;;;;;14.80;61.30;;;;;;5039804;27;88409;-64
2021/05/10 05:15:16;;;;;;;;;;;14.80;61.40;;;;;;5038052;27;88041;-65
2021/05/10 05:17:41;;;;;;;;;;;14.80;61.50;;;;;;5037959;27;87219;-64
2021/05/10 05:20:08;;;;;;;;;;;14.80;61.20;;;;;;5038240;27;88849;-64
2021/05/10 05:22:37;;;;;;;;;;;14.80;61.50;;;;;;5037246;28;89291;-64
2021/05/10 05:25:03;;;;;;;;;;;14.80;61.40;;;;;;5040395;27;87190;-65
2021/05/10 05:27:29;;;;;;;;;;;14.80;61.40;;;;;;5040496;27;87918;-65
2021/05/10 05:29:54;;;;;;;;;;;14.80;61.50;;;;;;5043394;28;86966;-64
2021/05/10 05:32:21;;;;;;;;;;;14.80;61.30;;;;;;5039488;28;87209;-65
2021/05/10 05:34:46;;;;;;;;;;;14.80;61.30;;;;;;5036814;28;89621;-64
2021/05/10 05:37:12;;;;;;;;;;;14.80;61.60;;;;;;5036914;28;89035;-65
2021/05/10 05:39:38;;;;;;;;;;;14.80;61.60;;;;;;5038109;28;89327;-65
2021/05/10 05:42:03;;;;;;;;;;;14.80;61.70;;;;;;5038232;28;87560;-65
2021/05/10 05:44:33;;;;;;;;;;;14.80;61.70;;;;;;5037620;28;87212;-65
2021/05/10 05:47:03;;;;;;;;;;;14.80;61.70;;;;;;5038167;28;89184;-64
2021/05/10 05:49:29;;;;;;;;;;;14.90;61.70;;;;;;5038034;28;87742;-65
2021/05/10 05:51:55;;;;;;;;;;;14.80;61.70;;;;;;5040228;28;87649;-64
2021/05/10 05:54:21;;;;;;;;;;;14.90;61.80;;;;;;5041070;28;88509;-64
2021/05/10 05:56:46;;;;;;;;;;;14.90;61.60;;;;;;5039765;28;87943;-64
2021/05/10 05:59:12;;;;;;;;;;;14.90;61.70;;;;;;5041721;28;87598;-65
2021/05/10 06:01:37;;;;;;;;;;;14.90;61.70;;;;;;5039186;28;89174;-64
2021/05/10 06:04:03;;;;;;;;;;;14.90;61.80;;;;;;5041491;28;87162;-65
2021/05/10 06:06:29;;;;;;;;;;;14.90;61.80;;;;;;5041396;28;87493;-65
2021/05/10 06:08:55;;;;;;;;;;;14.90;61.90;;;;;;5039720;28;88665;-65
2021/05/10 06:11:21;;;;;;;;;;;14.80;61.90;;;;;;5042915;28;87126;-65
2021/05/10 06:13:47;;;;;;;;;;;14.90;62.00;;;;;;5040715;28;89578;-65
2021/05/10 06:16:12;;;;;;;;;;;14.90;62.00;;;;;;5037862;28;88078;-65
2021/05/10 06:18:38;;;;;;;;;;;14.90;62.10;;;;;;5037283;28;86504;-65
2021/05/10 06:21:06;;;;;;;;;;;14.90;62.10;;;;;;5037592;28;87585;-65
2021/05/10 06:23:32;;;;;;;;;;;14.90;62.10;;;;;;5036332;28;89200;-65
2021/05/10 06:25:58;;;;;;;;;;;14.90;62.20;;;;;;5036044;28;88928;-65
2021/05/10 06:28:23;;;;;;;;;;;14.90;62.30;;;;;;5036359;28;87756;-65
2021/05/10 06:30:49;;;;;;;;;;;14.90;62.30;;;;;;5038196;27;87146;-65
2021/05/10 06:33:14;;;;;;;;;;;14.90;62.40;;;;;;5040349;27;88975;-65
2021/05/10 06:35:40;;;;;;;;;;;14.80;62.40;;;;;;5037141;27;87147;-65
2021/05/10 06:38:05;;;;;;;;;;;14.90;62.40;;;;;;5036252;27;87804;-65
2021/05/10 06:40:31;;;;;;;;;;;14.90;62.40;;;;;;5035537;28;88287;-65
2021/05/10 06:42:56;;;;;;;;;;;14.90;62.40;;;;;;5037091;27;86392;-65
2021/05/10 06:45:22;;;;;;;;;;;14.90;62.40;;;;;;5037600;28;87221;-65
2021/05/10 06:47:48;;;;;;;;;;;14.90;62.50;;;;;;5038316;27;89724;-65
2021/05/10 06:50:14;;;;;;;;;;;14.90;62.70;;;;;;5038110;27;88133;-65
2021/05/10 06:52:39;;;;;;;;;;;14.90;62.70;;;;;;5040074;28;88557;-64
2021/05/10 06:55:05;;;;;;;;;;;14.90;62.70;;;;;;5041851;28;88871;-65
2021/05/10 06:57:31;;;;;;;;;;;14.90;62.70;;;;;;5038001;27;88999;-65
2021/05/10 06:59:56;;;;;;;;;;;14.90;62.80;;;;;;5035673;27;89730;-65
2021/05/10 07:02:23;;;;;;;;;;;14.90;62.80;;;;;;5037143;28;87140;-65
2021/05/10 07:04:49;;;;;;;;;;;14.90;62.90;;;;;;5036578;27;89455;-65
2021/05/10 07:07:15;;;;;;;;;;;14.90;62.90;;;;;;5037610;28;87299;-65
2021/05/10 07:09:41;;;;;;;;;;;14.90;63.00;;;;;;5038811;28;87125;-65
2021/05/10 07:12:07;;;;;;;;;;;15.00;63.10;;;;;;5037828;27;89148;-65
2021/05/10 07:14:33;;;;;;;;;;;14.90;63.10;;;;;;5037235;27;89053;-65
2021/05/10 07:16:58;;;;;;;;;;;15.00;63.20;;;;;;5040724;27;87240;-64
2021/05/10 07:19:24;;;;;;;;;;;15.00;63.30;;;;;;5037520;27;89285;-65
2021/05/10 07:21:50;;;;;;;;;;;15.00;63.30;;;;;;5038392;28;87210;-65
2021/05/10 07:24:15;;;;;;;;;;;15.00;63.30;;;;;;5039673;27;87240;-65
2021/05/10 07:26:41;;;;;;;;;;;15.00;63.30;;;;;;5039199;28;89491;-65
2021/05/10 07:29:06;;;;;;;;;;;15.00;63.30;;;;;;5036485;27;88815;-65
2021/05/10 07:31:32;;;;;;;;;;;15.00;63.40;;;;;;5036577;28;86957;-65
2021/05/10 07:33:58;;;;;;;;;;;15.00;63.40;;;;;;5036682;28;89823;-65
2021/05/10 07:36:23;;;;;;;;;;;15.00;63.50;;;;;;5037149;28;87152;-65
2021/05/10 07:38:49;;;;;;;;;;;15.00;63.50;;;;;;5039735;28;88126;-65
2021/05/10 07:41:14;;;;;;;;;;;15.00;63.50;;;;;;5041263;28;87245;-65
2021/05/10 07:43:40;;;;;;;;;;;15.00;63.60;;;;;;5043453;28;88660;-65
2021/05/10 07:46:06;;;;;;;;;;;15.00;63.70;;;;;;5040512;28;88557;-65
2021/05/10 07:48:32;;;;;;;;;;;15.00;63.70;;;;;;5038529;28;87270;-65
2021/05/10 07:50:57;;;;;;;;;;;15.00;64.30;;;;;;5039134;28;88702;-65
2021/05/10 07:53:23;;;;;;;;;;;15.00;63.80;;;;;;5039087;28;88507;-65
2021/05/10 07:55:49;;;;;;;;;;;15.00;63.80;;;;;;5041111;28;86417;-65
2021/05/10 07:58:19;;;;;;;;;;;15.10;63.80;;;;;;5043011;28;88044;-65
2021/05/10 08:00:45;;;;;;;;;;;15.10;63.90;;;;;;5042396;28;87135;-65
2021/05/10 08:03:13;;;;;;;;;;;15.10;63.90;;;;;;5042641;28;88143;-65
2021/05/10 08:05:39;;;;;;;;;;;15.10;63.80;;;;;;5041168;28;89670;-65
2021/05/10 08:08:05;;;;;;;;;;;15.10;63.70;;;;;;5040316;28;87195;-65
2021/05/10 08:10:31;;;;;;;;;;;15.20;63.90;;;;;;5041085;28;88691;-65
2021/05/10 08:12:56;;;;;;;;;;;15.20;63.90;;;;;;5042012;28;87197;-65
2021/05/10 08:15:22;;;;;;;;;;;15.20;64.00;;;;;;5042429;28;87686;-65
2021/05/10 08:17:47;;;;;;;;;;;15.20;64.00;;;;;;5041254;28;88450;-65
2021/05/10 08:20:13;;;;;;;;;;;15.20;64.10;;;;;;5043010;28;87335;-65
2021/05/10 08:22:39;;;;;;;;;;;15.20;64.20;;;;;;5038743;28;88718;-65
2021/05/10 08:25:05;;;;;;;;;;;15.20;64.20;;;;;;5039424;28;88734;-65
2021/05/10 08:27:33;;;;;;;;;;;15.20;64.20;;;;;;5037524;28;88116;-65
2021/05/10 08:29:58;;;;;;;;;;;15.20;64.20;;;;;;5042385;27;89969;-65
2021/05/10 08:32:24;;;;;;;;;;;15.20;64.20;;;;;;5041220;28;88295;-65
2021/05/10 08:34:49;;;;;;;;;;;15.30;64.30;;;;;;5041009;28;87152;-65
2021/05/10 08:37:16;;;;;;;;;;;15.30;64.40;;;;;;5041658;28;87490;-65
2021/05/10 08:39:42;;;;;;;;;;;15.30;64.40;;;;;;5040822;27;89493;-65
2021/05/10 08:42:08;;;;;;;;;;;15.30;64.40;;;;;;5043455;27;87154;-65
2021/05/10 08:44:33;;;;;;;;;;;15.30;64.40;;;;;;5039545;27;88599;-65
2021/05/10 08:46:59;;;;;;;;;;;15.30;64.50;;;;;;5038831;27;87200;-65
2021/05/10 08:49:25;;;;;;;;;;;15.30;64.50;;;;;;5039443;27;87746;-66
2021/05/10 08:51:50;;;;;;;;;;;15.40;64.50;;;;;;5038819;27;89556;-65
2021/05/10 08:54:20;;;;;;;;;;;15.40;64.50;;;;;;5041822;27;87181;-65
2021/05/10 08:56:45;;;;;;;;;;;15.40;64.60;;;;;;5037731;27;88528;-65
2021/05/10 08:59:11;;;;;;;;;;;15.40;64.50;;;;;;5038194;28;88097;-65
2021/05/10 09:01:47;;;;;;;;;;;15.40;64.60;;;;;;5042674;27;87186;-65
2021/05/10 09:04:12;;;;;;;;;;;15.50;64.70;;;;;;5044710;27;88575;-65
2021/05/10 09:06:38;;;;;;;;;;;15.40;64.70;;;;;;5040852;28;87600;-65
2021/05/10 09:09:05;;;;;;;;;;;15.50;64.80;;;;;;5037854;27;88126;-66
2021/05/10 09:11:31;;;;;;;;;;;15.40;64.80;;;;;;5040568;27;89494;-65
2021/05/10 09:13:58;;;;;;;;;;;15.50;64.80;;;;;;5040386;28;87148;-65
2021/05/10 09:16:24;;;;;;;;;;;15.50;64.80;;;;;;5037183;27;88161;-66
2021/05/10 09:18:54;;;;;;;;;;;15.50;64.90;;;;;;5036816;27;88651;-65
2021/05/10 09:21:23;;;;;;;;;;;15.60;64.80;;;;;;5037766;27;87167;-65
2021/05/10 09:23:50;;;;;;;;;;;15.60;64.80;;;;;;5038079;27;88568;-65
2021/05/10 09:26:29;;;;;;;;;;;15.60;65.00;;;;;;5041514;27;89653;-65
2021/05/10 09:28:55;;;;;;;;;;;15.60;64.90;;;;;;5038387;27;88611;-65
2021/05/10 09:31:20;;;;;;;;;;;15.60;64.90;;;;;;5037277;28;88039;-65
2021/05/10 09:33:47;;;;;;;;;;;15.60;64.90;;;;;;5037283;28;87156;-65
2021/05/10 09:36:40;;;;;;;;;;;15.70;65.00;;;;;;5040383;28;87812;-65
2021/05/10 09:39:24;;;;;;;;;;;15.70;65.00;;;;;;5036160;28;89265;-65
2021/05/10 09:42:07;;;;;;;;;;;15.70;64.90;;;;;;5040448;28;88140;-65
2021/05/10 09:44:42;;;;;;;;;;;15.70;64.90;;;;;;5038292;28;88609;-65
2021/05/10 09:47:08;;;;;;;;;;;15.80;64.80;;;;;;5038848;28;87217;-65
2021/05/10 09:49:47;;;;;;;;;;;15.80;64.80;;;;;;5041115;28;87251;-65
2021/05/10 09:52:20;;;;;;;;;;;15.80;64.80;;;;;;5038773;28;89485;-65
2021/05/10 09:54:53;;;;;;;;;;;15.80;65.00;;;;;;5040924;28;89234;-65
2021/05/10 09:57:19;;;;;;;;;;;15.80;64.90;;;;;;5037815;28;89186;-65
2021/05/10 10:00:04;;;;;;;;;;;15.90;64.90;;;;;;5037139;28;86917;-65
2021/05/10 10:02:33;;;;;;;;;;;15.90;65.00;;;;;;5036166;28;87172;-65
2021/05/10 10:04:59;;;;;;;;;;;15.90;64.90;;;;;;5037880;28;87370;-65
2021/05/10 10:07:24;;;;;;;;;;;15.90;65.50;;;;;;5035627;28;88599;-65
2021/05/10 10:09:50;;;;;;;;;;;16.00;65.00;;;;;;5039787;28;87657;-65
2021/05/10 10:12:16;;;;;;;;;;;16.00;64.90;;;;;;5039698;28;87288;-65
2021/05/10 10:14:42;;;;;;;;;;;16.00;64.80;;;;;;5041288;28;87162;-65
2021/05/10 10:17:10;;;;;;;;;;;16.00;64.90;;;;;;5038144;28;88954;-65
2021/05/10 10:19:35;;;;;;;;;;;16.00;64.70;;;;;;5036852;28;89614;-65
2021/05/10 10:22:01;;;;;;;;;;;16.10;64.60;;;;;;5040956;28;88560;-65
2021/05/10 10:24:27;;;;;;;;;;;16.10;64.60;;;;;;5041223;28;87073;-65
2021/05/10 10:26:53;;;;;;;;;;;16.10;64.60;;;;;;5039145;28;88056;-65
2021/05/10 10:29:19;;;;;;;;;;;16.10;64.70;;;;;;5038049;28;87169;-67
2021/05/10 10:31:47;;;;;;;;;;;16.20;64.80;;;;;;5038596;27;89235;-68
2021/05/10 10:34:15;;;;;;;;;;;16.20;64.70;;;;;;5039070;27;87243;-68
2021/05/10 10:37:09;;;;;;;;;;;16.20;64.70;;;;;;5036801;27;87415;-68
2021/05/10 10:39:35;;;;;;;;;;;16.20;64.70;;;;;;5027564;27;87156;-68
2021/05/10 10:42:06;;;;;;;;;;;16.20;64.80;;;;;;5036466;27;87126;-68
2021/05/10 10:44:37;;;;;;;;;;;16.20;64.80;;;;;;5037305;27;89095;-68
2021/05/10 10:47:03;;;;;;;;;;;16.30;64.80;;;;;;5039952;27;89180;-68
2021/05/10 10:49:49;;;;;;;;;;;16.30;64.80;;;;;;5039529;28;86387;-67
2021/05/10 10:52:19;;;;;;;;;;;16.30;64.80;;;;;;5037493;28;87158;-68
2021/05/10 10:54:45;;;;;;;;;;;16.30;64.80;;;;;;5039760;27;88265;-68
2021/05/10 10:57:29;;;;;;;;;;;16.30;64.90;;;;;;5035301;28;88191;-68
2021/05/10 10:59:54;;;;;;;;;;;16.40;64.90;;;;;;5036969;28;88663;-68
2021/05/10 11:02:26;;;;;;;;;;;16.40;64.70;;;;;;5036801;28;87137;-68
2021/05/10 11:05:07;;;;;;;;;;;16.40;64.80;;;;;;5040096;27;88741;-68
2021/05/10 11:07:48;;;;;;;;;;;16.40;64.90;;;;;;5039443;27;89722;-68
2021/05/10 11:10:33;;;;;;;;;;;16.50;64.80;;;;;;5037982;27;87153;-68
2021/05/10 11:12:58;;;;;;;;;;;16.50;64.80;;;;;;5038983;28;87187;-68
2021/05/10 11:15:41;;;;;;;;;;;16.50;64.80;;;;;;5039631;28;87699;-68
2021/05/10 11:18:07;;;;;;;;;;;16.50;64.70;;;;;;5046262;27;88811;-68
2021/05/10 11:20:39;;;;;;;;;;;16.50;64.70;;;;;;5043114;27;89459;-68
2021/05/10 11:23:23;;;;;;;;;;;16.60;64.80;;;;;;5039583;28;88078;-68
2021/05/10 11:25:49;;;;;;;;;;;16.60;64.80;;;;;;5041886;27;87681;-68
2021/05/10 11:28:20;;;;;;;;;;;16.60;64.80;;;;;;5039928;27;88617;-68
2021/05/10 11:30:55;;;;;;;;;;;16.60;64.60;;;;;;5038846;28;87993;-68
2021/05/10 11:33:39;;;;;;;;;;;16.60;64.70;;;;;;5039072;28;88771;-68
2021/05/10 11:36:05;;;;;;;;;;;16.70;64.50;;;;;;5039498;28;87530;-68
2021/05/10 11:38:30;;;;;;;;;;;16.70;64.50;;;;;;5039266;28;87142;-68
2021/05/10 11:40:56;;;;;;;;;;;16.70;64.60;;;;;;5041662;28;88754;-68
2021/05/10 11:43:21;;;;;;;;;;;16.70;64.40;;;;;;5040566;28;88328;-68
2021/05/10 11:45:47;;;;;;;;;;;16.80;64.80;;;;;;5043514;28;88531;-68
2021/05/10 11:48:13;;;;;;;;;;;16.80;64.40;;;;;;5041509;28;88057;-68
2021/05/10 11:50:45;;;;;;;;;;;16.80;64.30;;;;;;5041707;28;87178;-68
2021/05/10 11:53:15;;;;;;;;;;;16.80;64.20;;;;;;5039577;28;88861;-66
2021/05/10 11:55:58;;;;;;;;;;;16.80;64.40;;;;;;5040474;28;88348;-65
2021/05/10 11:58:46;;;;;;;;;;;16.90;64.50;;;;;;5043485;28;87174;-65
2021/05/10 12:01:12;;;;;;;;;;;16.90;64.40;;;;;;5040263;28;87635;-65
2021/05/10 12:03:37;;;;;;;;;;;16.90;64.30;;;;;;5043944;28;87627;-65
2021/05/10 12:06:23;;;;;;;;;;;17.00;64.40;;;;;;5041137;28;87444;-65
2021/05/10 12:08:48;;;;;;;;;;;16.90;64.40;;;;;;5039498;28;89026;-65
2021/05/10 12:11:23;;;;;;;;;;;17.00;64.20;;;;;;5039577;28;87163;-65
2021/05/10 12:13:49;;;;;;;;;;;17.00;64.30;;;;;;5038985;28;88312;-65
2021/05/10 12:16:14;;;;;;;;;;;17.00;64.40;;;;;;5038871;28;87452;-65
2021/05/10 12:18:52;;;;;;;;;;;17.10;64.40;;;;;;5039575;28;87264;-65
2021/05/10 12:21:18;;;;;;;;;;;17.10;64.40;;;;;;5041954;28;88941;-65
2021/05/10 12:23:43;;;;;;;;;;;17.10;64.30;;;;;;5043917;28;89273;-65
2021/05/10 12:26:12;;;;;;;;;;;17.20;64.10;;;;;;5040193;28;87160;-65
2021/05/10 12:28:38;;;;;;;;;;;17.20;64.10;;;;;;5026522;28;88441;-65
2021/05/10 12:31:03;;;;;;;;;;;17.20;64.00;;;;;;5021600;28;86384;-65
2021/05/10 12:33:29;;;;;;;;;;;17.20;64.00;;;;;;5020330;28;87147;-65
2021/05/10 12:35:55;;;;;;;;;;;17.20;63.90;;;;;;5018644;28;88184;-65
2021/05/10 12:38:25;;;;;;;;;;;17.30;63.90;;;;;;5018057;28;89754;-65
2021/05/10 12:40:52;;;;;;;;;;;17.30;63.70;;;;;;5017547;28;89313;-65
2021/05/10 12:43:18;;;;;;;;;;;17.30;63.70;;;;;;5021838;28;89905;-65
2021/05/10 12:45:46;;;;;;;;;;;17.40;63.40;;;;;;5023335;28;87168;-65
2021/05/10 12:48:12;;;;;;;;;;;17.40;63.40;;;;;;5019273;28;89023;-65
2021/05/10 12:50:41;;;;;;;;;;;17.40;63.20;;;;;;5021754;28;87813;-65
2021/05/10 12:53:08;;;;;;;;;;;17.40;63.80;;;;;;5022117;28;87876;-65
2021/05/10 12:55:34;;;;;;;;;;;17.50;62.90;;;;;;5022042;28;86830;-65
2021/05/10 12:58:16;;;;;;;;;;;17.50;63.10;;;;;;5020238;28;87245;-65
2021/05/10 13:00:42;;;;;;;;;;;17.50;63.00;;;;;;5017803;28;88594;-65
2021/05/10 13:03:24;;;;;;;;;;;17.60;63.10;;;;;;5020747;28;89607;-65
2021/05/10 13:05:49;;;;;;;;;;;17.60;63.40;;;;;;5020603;28;87143;-65
2021/05/10 13:08:15;;;;;;;;;;;17.60;63.10;;;;;;5023572;28;89496;-65
2021/05/10 13:10:41;;;;;;;;;;;17.60;63.00;;;;;;5020213;28;87169;-65
2021/05/10 13:13:13;;;;;;;;;;;17.60;63.20;;;;;;5019327;28;87162;-65
2021/05/10 13:15:47;;;;;;;;;;;17.70;62.70;;;;;;5021724;28;89682;-65
2021/05/10 13:32:49;;;;;;;;;;;17.90;63.30;;;;;;5030947;28;87597;-65
2021/05/10 13:35:32;;;;;;;;;;;17.90;62.90;;;;;;5041039;28;87249;-65
2021/05/10 13:38:01;;;;;;;;;;;17.90;63.00;;;;;;5037350;28;87798;-65
2021/05/10 13:40:27;;;;;;;;;;;18.00;63.20;;;;;;5040423;28;87184;-65
2021/05/10 13:42:57;;;;;;;;;;;18.00;63.10;;;;;;5040933;28;88481;-65
2021/05/10 13:45:22;;;;;;;;;;;18.00;63.40;;;;;;5039931;28;88383;-65
2021/05/10 13:47:48;;;;;;;;;;;18.10;62.90;;;;;;5037292;28;87770;-65
2021/05/10 13:50:13;;;;;;;;;;;18.10;63.10;;;;;;5037218;28;88083;-65
2021/05/10 13:52:39;;;;;;;;;;;18.10;63.10;;;;;;5037386;28;87146;-65
2021/05/10 13:55:05;;;;;;;;;;;18.10;62.80;;;;;;5041235;28;88180;-65
2021/05/10 13:57:30;;;;;;;;;;;18.20;63.00;;;;;;5039651;28;88133;-65
2021/05/10 13:59:57;;;;;;;;;;;18.20;62.30;;;;;;5040979;28;87182;-65
2021/05/10 14:02:23;;;;;;;;;;;18.20;62.90;;;;;;5040545;28;87622;-65
2021/05/10 14:04:48;;;;;;;;;;;18.30;62.30;;;;;;5040436;28;88140;-65
2021/05/10 14:07:14;;;;;;;;;;;18.30;62.90;;;;;;5040330;28;88699;-65
2021/05/10 14:09:39;;;;;;;;;;;18.30;62.40;;;;;;5041250;28;87423;-65
2021/05/10 14:12:05;;;;;;;;;;;18.40;62.20;;;;;;5040881;28;86923;-65
2021/05/10 14:14:30;;;;;;;;;;;18.40;62.30;;;;;;5041458;28;87210;-66
2021/05/10 14:16:56;;;;;;;;;;;18.50;62.50;;;;;;5040896;28;88536;-65
2021/05/10 14:19:22;;;;;;;;;;;18.50;62.50;;;;;;5036135;28;88089;-65
2021/05/10 14:22:03;;;;;;;;;;;18.50;62.30;;;;;;5037064;28;89519;-65
2021/05/10 14:24:30;;;;;;;;;;;18.60;62.40;;;;;;5040132;28;88397;-65
2021/05/10 14:26:56;;;;;;;;;;;18.60;62.10;;;;;;5039605;28;88381;-65
2021/05/10 14:29:21;;;;;;;;;;;18.60;62.50;;;;;;5041276;27;87381;-65
2021/05/10 14:31:47;;;;;;;;;;;18.70;62.10;;;;;;5038299;27;89210;-65
2021/05/10 14:34:13;;;;;;;;;;;18.70;62.20;;;;;;5036290;27;87175;-65
2021/05/10 14:36:39;;;;;;;;;;;18.70;62.40;;;;;;5039683;27;88843;-65
2021/05/10 14:39:05;;;;;;;;;;;18.80;62.10;;;;;;5036406;27;87174;-65